createdAt,value
2019-04-11T00:01:16.332Z,79.16
2019-04-11T00:03:45.944Z,77.99
2019-04-11T00:06:15.083Z,77.15
2019-04-11T00:08:44.039Z,78.90
2019-04-11T00:11:13.496Z,79.17
2019-04-11T00:13:43.185Z,78.72
2019-04-11T00:16:12.997Z,78.04
2019-04-11T00:18:42.907Z,77.76
2019-04-11T00:21:12.822Z,77.48
2019-04-11T00:23:42.419Z,77.57
2019-04-11T00:26:11.833Z,77.23
2019-04-11T00:28:41.609Z,76.14
2019-04-11T00:31:10.470Z,74.67
2019-04-11T00:33:40.329Z,75.60
2019-04-11T00:36:10.301Z,76.97
2019-04-11T00:38:40.209Z,76.51
2019-04-11T00:41:09.971Z,77.53
2019-04-11T00:43:41.969Z,77.80
2019-04-11T00:46:09.927Z,78.24
2019-04-11T00:48:38.766Z,77.85
2019-04-11T00:51:07.733Z,78.43
2019-04-11T00:53:36.538Z,78.29
2019-04-11T00:56:06.223Z,79.20
2019-04-11T00:58:36.041Z,79.04
2019-04-11T01:01:04.987Z,78.74
2019-04-11T01:03:33.943Z,79.20
2019-04-11T01:06:03.425Z,80.11
2019-04-11T01:08:32.568Z,80.39
2019-04-11T01:11:01.240Z,80.48
2019-04-11T01:13:40.591Z,79.87
2019-04-11T01:16:05.127Z,79.38
2019-04-11T01:18:33.968Z,79.36
2019-04-11T01:21:06.219Z,79.74
2019-04-11T01:23:35.367Z,80.03
2019-04-11T01:26:05.217Z,80.94
2019-04-11T01:28:34.611Z,81.57
2019-04-11T01:31:07.309Z,82.78
2019-04-11T01:33:36.487Z,83.11
2019-04-11T01:36:05.287Z,83.56
2019-04-11T01:38:38.696Z,84.13
2019-04-11T01:41:10.020Z,83.32
2019-04-11T01:43:39.866Z,82.70
2019-04-11T01:46:09.707Z,83.05
2019-04-11T01:48:55.639Z,83.31
2019-04-11T01:51:25.376Z,83.63
2019-04-11T01:53:55.344Z,84.42
2019-04-11T01:56:25.232Z,83.94
2019-04-11T01:58:55.127Z,84.21
2019-04-11T02:01:32.618Z,84.45
2019-04-11T02:04:07.755Z,83.26
2019-04-11T02:06:36.481Z,83.74
2019-04-11T02:09:09.532Z,83.71
2019-04-11T02:11:37.394Z,83.71
2019-04-11T02:14:13.548Z,83.01
2019-04-11T02:16:36.950Z,83.37
2019-04-11T02:19:05.845Z,83.37
2019-04-11T02:21:35.891Z,83.91
2019-04-11T02:24:21.059Z,85.14
2019-04-11T02:27:24.762Z,85.18
2019-04-11T02:29:55.157Z,84.32
2019-04-11T02:32:27.025Z,84.69
2019-04-11T02:34:58.929Z,84.58
2019-04-11T02:37:26.931Z,84.03
2019-04-11T02:39:57.484Z,84.43
2019-04-11T02:42:27.600Z,85.07
2019-04-11T02:45:13.865Z,84.86
2019-04-11T02:47:32.616Z,83.65
2019-04-11T02:49:59.292Z,82.71
2019-04-11T02:52:28.380Z,82.78
2019-04-11T02:55:00.778Z,83.12
2019-04-11T02:57:30.171Z,83.43
2019-04-11T02:59:59.875Z,83.54
2019-04-11T03:02:30.886Z,83.89
2019-04-11T03:05:00.516Z,84.48
2019-04-11T03:07:30.080Z,84.31
2019-04-11T03:10:00.296Z,83.91
2019-04-11T03:12:31.342Z,83.91
2019-04-11T03:15:14.729Z,84.04
2019-04-11T03:17:36.729Z,84.25
2019-04-11T03:20:13.060Z,84.80
2019-04-11T03:22:34.493Z,84.90
2019-04-11T03:25:05.415Z,85.70
2019-04-11T03:27:34.938Z,85.87
2019-04-11T03:30:09.851Z,86.08
2019-04-11T03:33:25.254Z,86.23
2019-04-11T03:36:01.097Z,86.31
2019-04-11T03:38:00.405Z,85.85
2019-04-11T03:40:28.740Z,85.88
2019-04-11T03:42:58.628Z,85.87
2019-04-11T03:45:34.735Z,86.04
2019-04-11T03:47:59.521Z,87.20
2019-04-11T03:50:16.562Z,86.92
2019-04-11T03:52:45.033Z,86.92
2019-04-11T03:55:15.226Z,86.67
2019-04-11T03:57:44.669Z,86.44
2019-04-11T04:00:15.393Z,86.56
2019-04-11T04:02:46.796Z,86.56
2019-04-11T04:05:17.744Z,87.43
2019-04-11T04:07:48.852Z,87.43
2019-04-11T04:10:20.406Z,89.00
2019-04-11T04:12:51.621Z,89.00
2019-04-11T04:15:44.320Z,88.20
2019-04-11T04:18:16.413Z,88.57
2019-04-11T04:21:08.403Z,88.92
2019-04-11T04:23:40.905Z,88.58
2019-04-11T04:26:12.199Z,88.58
2019-04-11T04:28:41.084Z,88.54
2019-04-11T04:31:11.727Z,88.23
2019-04-11T04:33:42.967Z,88.18
2019-04-11T04:36:13.845Z,88.18
2019-04-11T04:38:44.529Z,87.87
2019-04-11T04:41:26.792Z,88.16
2019-04-11T04:43:48.120Z,88.27
2019-04-11T04:46:35.192Z,88.77
2019-04-11T04:48:49.431Z,88.77
2019-04-11T04:51:19.967Z,88.51
2019-04-11T04:53:49.951Z,88.51
2019-04-11T04:56:24.126Z,88.64
2019-04-11T04:58:50.765Z,88.59
2019-04-11T05:01:21.227Z,88.94
2019-04-11T05:03:50.979Z,89.29
2019-04-11T05:06:20.704Z,89.43
2019-04-11T05:08:51.279Z,89.35
2019-04-11T05:11:20.133Z,89.39
2019-04-11T05:13:51.753Z,89.65
2019-04-11T05:16:20.036Z,89.24
2019-04-11T05:18:48.985Z,88.42
2019-04-11T05:21:21.197Z,88.18
2019-04-11T05:23:50.117Z,88.18
2019-04-11T05:26:19.372Z,88.63
2019-04-11T05:28:49.021Z,88.19
2019-04-11T05:31:20.540Z,88.19
2019-04-11T05:33:49.798Z,87.76
2019-04-11T05:36:18.748Z,87.52
2019-04-11T05:38:48.543Z,86.90
2019-04-11T05:41:19.157Z,86.61
2019-04-11T05:43:47.802Z,86.98
2019-04-11T05:46:31.406Z,87.54
2019-04-11T05:49:09.219Z,85.56
2019-04-11T05:51:42.578Z,83.95
2019-04-11T05:54:09.530Z,80.96
2019-04-11T05:56:39.160Z,79.43
2019-04-11T05:59:17.213Z,78.54
2019-04-11T06:01:52.648Z,77.75
2019-04-11T06:04:30.134Z,75.75
2019-04-11T06:07:18.835Z,75.59
2019-04-11T06:09:49.826Z,75.63
2019-04-11T06:12:41.403Z,72.22
2019-04-11T06:15:19.636Z,71.04
2019-04-11T06:17:48.242Z,71.74
2019-04-11T06:20:25.093Z,70.86
2019-04-11T06:23:09.954Z,70.46
2019-04-11T06:25:49.197Z,70.02
2019-04-11T06:28:22.776Z,69.28
2019-04-11T06:31:09.738Z,69.82
2019-04-11T06:33:42.911Z,70.21
2019-04-11T06:36:32.874Z,70.98
2019-04-11T06:39:12.808Z,72.14
2019-04-11T06:42:04.837Z,72.64
2019-04-11T06:44:41.754Z,71.82
2019-04-11T06:47:29.171Z,71.26
2019-04-11T06:50:15.947Z,70.48
2019-04-11T06:52:45.360Z,70.29
2019-04-11T06:55:41.240Z,70.13
2019-04-11T06:58:15.003Z,68.39
2019-04-11T07:00:47.566Z,67.74
2019-04-11T07:03:23.123Z,67.63
2019-04-11T07:05:50.975Z,63.66
2019-04-11T07:08:22.300Z,62.59
2019-04-11T07:10:56.613Z,62.57
2019-04-11T07:13:32.891Z,61.02
2019-04-11T07:16:02.698Z,59.93
2019-04-11T07:18:50.589Z,59.03
2019-04-11T07:21:21.230Z,58.64
2019-04-11T07:24:07.578Z,58.84
2019-04-11T07:26:43.559Z,57.77
2019-04-11T07:29:31.518Z,56.98
2019-04-11T07:32:18.040Z,56.99
2019-04-11T07:35:04.955Z,56.51
2019-04-11T07:37:36.736Z,55.82
2019-04-11T07:40:29.444Z,54.32
2019-04-11T07:43:14.973Z,53.31
2019-04-11T07:46:00.422Z,53.35
2019-04-11T07:48:38.108Z,55.11
2019-04-11T07:51:27.560Z,54.73
2019-04-11T07:53:57.824Z,54.79
2019-04-11T07:56:37.616Z,53.52
2019-04-11T07:59:10.726Z,50.68
2019-04-11T08:02:16.078Z,48.95
2019-04-11T08:04:58.317Z,49.23
2019-04-11T08:07:46.880Z,47.64
2019-04-11T08:10:20.937Z,46.54
2019-04-11T08:12:49.900Z,46.32
2019-04-11T08:15:39.881Z,46.75
2019-04-11T08:18:16.635Z,46.02
2019-04-11T08:21:08.019Z,43.47
2019-04-11T08:23:37.861Z,42.49
2019-04-11T08:26:24.165Z,40.73
2019-04-11T08:29:02.478Z,40.58
2019-04-11T08:31:46.638Z,38.82
2019-04-11T08:34:17.247Z,38.20
2019-04-11T08:37:17.686Z,36.21
2019-04-11T08:39:49.774Z,36.38
2019-04-11T08:42:37.759Z,35.71
2019-04-11T08:45:09.876Z,35.47
2019-04-11T08:47:54.513Z,33.64
2019-04-11T08:50:23.652Z,33.30
2019-04-11T08:53:02.602Z,33.11
2019-04-11T08:55:55.740Z,32.55
2019-04-11T08:58:38.487Z,31.52
2019-04-11T09:01:08.762Z,30.64
2019-04-11T09:04:10.186Z,30.25
2019-04-11T09:06:38.880Z,30.37
2019-04-11T09:09:39.891Z,31.54
2019-04-11T09:12:12.097Z,29.57
2019-04-11T09:15:00.191Z,28.77
2019-04-11T09:17:32.550Z,28.81
2019-04-11T09:20:21.445Z,29.78
2019-04-11T09:23:07.204Z,30.04
2019-04-11T09:25:55.386Z,29.95
2019-04-11T09:28:35.907Z,30.03
2019-04-11T09:31:42.168Z,30.59
2019-04-11T09:34:30.407Z,31.38
2019-04-11T09:37:05.243Z,28.91
2019-04-11T09:39:53.104Z,27.93
2019-04-11T09:42:40.600Z,27.10
2019-04-11T09:45:24.129Z,25.60
2019-04-11T09:48:14.813Z,26.21
2019-04-11T09:50:48.975Z,24.83
2019-04-11T09:53:19.158Z,26.48
2019-04-11T09:56:06.837Z,25.54
2019-04-11T09:58:35.784Z,23.95
2019-04-11T10:01:42.987Z,26.00
2019-04-11T10:04:12.289Z,27.31
2019-04-11T10:07:01.221Z,27.73
2019-04-11T10:09:42.639Z,27.23
2019-04-11T10:12:29.694Z,28.35
2019-04-11T10:14:58.712Z,27.87
2019-04-11T10:18:01.565Z,29.05
2019-04-11T10:20:30.821Z,30.65
2019-04-11T10:23:18.826Z,31.67
2019-04-11T10:25:51.824Z,29.51
2019-04-11T10:28:37.654Z,30.80
2019-04-11T10:31:08.643Z,32.45
2019-04-11T10:33:53.242Z,34.90
2019-04-11T10:36:34.826Z,34.92
2019-04-11T10:39:18.629Z,33.53
2019-04-11T10:41:50.791Z,33.47
2019-04-11T10:44:28.147Z,31.16
2019-04-11T10:47:08.379Z,31.15
2019-04-11T10:49:54.673Z,31.45
2019-04-11T10:52:28.924Z,31.56
2019-04-11T10:55:09.831Z,31.04
2019-04-11T10:57:44.460Z,33.06
2019-04-11T11:00:20.927Z,33.84
2019-04-11T11:03:01.967Z,32.03
2019-04-11T11:05:32.522Z,32.23
2019-04-11T11:08:07.043Z,30.57
2019-04-11T11:10:36.959Z,29.95
2019-04-11T11:13:23.640Z,29.62
2019-04-11T11:15:56.041Z,28.83
2019-04-11T11:19:03.605Z,30.32
2019-04-11T11:21:13.901Z,30.64
2019-04-11T11:24:00.853Z,31.20
2019-04-11T11:26:37.187Z,32.34
2019-04-11T11:29:24.323Z,33.84
2019-04-11T11:31:59.328Z,33.83
2019-04-11T11:34:32.662Z,32.42
2019-04-11T11:37:17.872Z,31.09
2019-04-11T11:40:10.570Z,30.37
2019-04-11T11:42:50.575Z,31.01
2019-04-11T11:45:27.718Z,31.76
2019-04-11T11:48:13.713Z,31.15
2019-04-11T11:50:39.590Z,31.28
2019-04-11T11:53:31.380Z,31.47
2019-04-11T11:56:00.472Z,31.49
2019-04-11T11:59:01.106Z,31.65
2019-04-11T12:01:31.543Z,31.13
2019-04-11T12:04:24.261Z,31.46
2019-04-11T12:06:59.879Z,32.23
2019-04-11T12:09:48.888Z,32.53
2019-04-11T12:12:22.461Z,31.34
2019-04-11T12:15:14.213Z,29.76
2019-04-11T12:18:09.390Z,29.84
2019-04-11T12:20:44.843Z,29.15
2019-04-11T12:23:57.213Z,29.59
2019-04-11T12:26:44.708Z,31.08
2019-04-11T12:29:32.188Z,30.23
2019-04-11T12:32:08.342Z,29.80
2019-04-11T12:35:15.671Z,30.11
2019-04-11T12:37:57.816Z,30.92
2019-04-11T12:40:45.150Z,31.37
2019-04-11T12:43:18.778Z,31.40
2019-04-11T12:46:07.541Z,31.38
2019-04-11T12:48:42.202Z,30.96
2019-04-11T12:51:38.149Z,31.25
2019-04-11T12:54:12.396Z,31.00
2019-04-11T12:57:01.384Z,30.97
2019-04-11T12:59:31.212Z,31.61
2019-04-11T13:02:32.401Z,31.60
2019-04-11T13:05:12.989Z,31.08
2019-04-11T13:08:15.528Z,31.46
2019-04-11T13:10:46.572Z,31.56
2019-04-11T13:13:32.987Z,32.04
2019-04-11T13:16:13.113Z,33.26
2019-04-11T13:19:00.871Z,33.28
2019-04-11T13:22:21.079Z,33.65
2019-04-11T13:25:11.766Z,34.48
2019-04-11T13:27:53.478Z,34.99
2019-04-11T13:30:43.868Z,35.30
2019-04-11T13:33:26.280Z,36.12
2019-04-11T13:36:19.330Z,35.47
2019-04-11T13:38:51.938Z,35.79
2019-04-11T13:41:35.476Z,36.03
2019-04-11T13:44:15.528Z,35.53
2019-04-11T13:47:06.311Z,34.85
2019-04-11T13:49:46.060Z,34.94
2019-04-11T13:52:43.384Z,34.62
2019-04-11T13:55:37.747Z,32.64
2019-04-11T13:58:24.729Z,32.15
2019-04-11T14:01:03.317Z,31.47
2019-04-11T14:04:08.700Z,30.85
2019-04-11T14:06:38.153Z,29.58
2019-04-11T14:09:33.485Z,29.23
2019-04-11T14:12:06.802Z,29.44
2019-04-11T14:14:39.731Z,29.73
2019-04-11T14:17:17.349Z,29.93
2019-04-11T14:20:12.595Z,29.09
2019-04-11T14:22:56.628Z,28.31
2019-04-11T14:25:43.294Z,28.08
2019-04-11T14:28:12.752Z,29.00
2019-04-11T14:30:51.661Z,30.21
2019-04-11T14:33:17.810Z,31.30
2019-04-11T14:36:11.544Z,31.80
2019-04-11T14:38:46.478Z,32.21
2019-04-11T14:41:30.962Z,32.92
2019-04-11T14:44:02.171Z,33.49
2019-04-11T14:46:49.151Z,33.22
2019-04-11T14:49:19.209Z,33.21
2019-04-11T14:52:07.161Z,34.07
2019-04-11T14:54:49.272Z,34.41
2019-04-11T14:57:55.687Z,34.98
2019-04-11T15:00:44.488Z,34.96
2019-04-11T15:03:32.488Z,35.07
2019-04-11T15:06:23.427Z,35.28
2019-04-11T15:09:17.698Z,34.28
2019-04-11T15:12:17.679Z,34.65
2019-04-11T15:15:22.457Z,34.18
2019-04-11T15:17:55.561Z,35.37
2019-04-11T15:20:53.823Z,35.31
2019-04-11T15:23:22.356Z,34.82
2019-04-11T15:26:10.103Z,35.48
2019-04-11T15:28:50.697Z,35.00
2019-04-11T15:31:47.823Z,34.96
2019-04-11T15:34:35.554Z,34.97
2019-04-11T15:37:21.942Z,34.50
2019-04-11T15:40:08.573Z,34.33
2019-04-11T15:42:57.037Z,34.21
2019-04-11T15:45:32.718Z,34.85
2019-04-11T15:48:35.867Z,34.47
2019-04-11T15:51:23.509Z,34.74
2019-04-11T15:54:26.700Z,34.63
2019-04-11T15:57:19.672Z,35.03
2019-04-11T16:00:07.369Z,35.92
2019-04-11T16:03:01.497Z,35.60
2019-04-11T16:05:49.215Z,36.38
2019-04-11T16:08:29.298Z,37.09
2019-04-11T16:11:15.885Z,37.98
2019-04-11T16:14:02.600Z,37.95
2019-04-11T16:16:48.586Z,38.60
2019-04-11T16:19:40.336Z,38.37
2019-04-11T16:22:26.743Z,38.36
2019-04-11T16:24:58.337Z,38.57
2019-04-11T16:27:45.244Z,38.43
2019-04-11T16:30:15.438Z,39.05
2019-04-11T16:32:47.883Z,39.57
2019-04-11T16:35:23.807Z,40.10
2019-04-11T16:38:00.361Z,39.98
2019-04-11T16:40:54.112Z,40.02
2019-04-11T16:43:24.481Z,40.02
2019-04-11T16:46:11.221Z,40.02
2019-04-11T16:48:39.890Z,40.42
2019-04-11T16:51:08.541Z,41.31
2019-04-11T16:53:37.238Z,40.85
2019-04-11T16:56:05.919Z,40.91
2019-04-11T16:58:34.580Z,41.53
2019-04-11T17:01:03.265Z,41.71
2019-04-11T17:03:31.917Z,42.00
2019-04-11T17:06:14.793Z,42.19
2019-04-11T17:08:51.806Z,42.56
2019-04-11T17:11:20.928Z,42.99
2019-04-11T17:13:49.579Z,42.74
2019-04-11T17:16:21.378Z,43.23
2019-04-11T17:18:50.075Z,43.45
2019-04-11T17:21:18.725Z,43.66
2019-04-11T17:23:47.829Z,44.11
2019-04-11T17:26:16.916Z,44.18
2019-04-11T17:28:45.599Z,44.48
2019-04-11T17:31:14.272Z,43.19
2019-04-11T17:33:42.999Z,43.21
2019-04-11T17:36:11.632Z,42.99
2019-04-11T17:38:40.294Z,42.87
2019-04-11T17:41:11.969Z,42.90
2019-04-11T17:43:42.012Z,42.97
2019-04-11T17:46:09.819Z,43.14
2019-04-11T17:48:38.486Z,42.85
2019-04-11T17:51:09.513Z,43.07
2019-04-11T17:53:37.706Z,43.39
2019-04-11T17:56:06.369Z,43.10
2019-04-11T17:58:35.104Z,43.47
2019-04-11T18:01:06.030Z,43.46
2019-04-11T18:03:34.783Z,44.00
2019-04-11T18:06:03.472Z,44.32
2019-04-11T18:08:32.166Z,44.54
2019-04-11T18:11:00.856Z,44.02
2019-04-11T18:13:31.575Z,43.98
2019-04-11T18:16:01.218Z,43.93
2019-04-11T18:18:34.944Z,43.67
2019-04-11T18:21:00.850Z,43.40
2019-04-11T18:23:29.614Z,43.99
2019-04-11T18:25:58.653Z,43.69
2019-04-11T18:28:27.685Z,43.83
2019-04-11T18:30:56.592Z,43.92
2019-04-11T18:33:25.327Z,44.33
2019-04-11T18:35:53.989Z,44.63
2019-04-11T18:38:22.942Z,44.58
2019-04-11T18:40:51.702Z,45.17
2019-04-11T18:43:20.443Z,45.48
2019-04-11T18:45:49.444Z,45.52
2019-04-11T18:48:18.239Z,45.40
2019-04-11T18:50:47.295Z,45.49
2019-04-11T18:53:15.986Z,46.04
2019-04-11T18:55:44.662Z,45.24
2019-04-11T18:58:13.340Z,45.12
2019-04-11T19:00:41.999Z,45.40
2019-04-11T19:03:10.889Z,45.53
2019-04-11T19:05:42.818Z,44.71
2019-04-11T19:08:12.960Z,44.84
2019-04-11T19:10:42.886Z,43.56
2019-04-11T19:13:11.750Z,43.80
2019-04-11T19:15:40.408Z,43.73
2019-04-11T19:18:09.237Z,44.57
2019-04-11T19:20:37.926Z,45.24
2019-04-11T19:23:07.930Z,45.16
2019-04-11T19:25:37.212Z,44.75
2019-04-11T19:28:05.907Z,44.90
2019-04-11T19:30:35.026Z,44.83
2019-04-11T19:33:03.753Z,44.67
2019-04-11T19:35:32.429Z,44.51
2019-04-11T19:38:01.114Z,44.63
2019-04-11T19:40:30.597Z,44.88
2019-04-11T19:42:59.319Z,44.31
2019-04-11T19:45:27.966Z,44.53
2019-04-11T19:47:56.653Z,44.87
2019-04-11T19:50:26.704Z,44.78
2019-04-11T19:52:55.724Z,44.71
2019-04-11T19:55:41.390Z,45.02
2019-04-11T19:58:10.061Z,44.91
2019-04-11T20:00:39.159Z,45.39
2019-04-11T20:03:08.552Z,45.57
2019-04-11T20:05:37.636Z,45.31
2019-04-11T20:08:06.294Z,45.26
2019-04-11T20:10:34.983Z,45.64
2019-04-11T20:13:05.438Z,45.48
2019-04-11T20:15:37.250Z,45.59
2019-04-11T20:18:04.506Z,46.19
2019-04-11T20:20:36.887Z,46.76
2019-04-11T20:23:03.568Z,46.33
2019-04-11T20:25:32.665Z,46.52
2019-04-11T20:28:01.349Z,46.41
2019-04-11T20:30:30.057Z,46.35
2019-04-11T20:33:02.922Z,46.43
2019-04-11T20:35:29.876Z,46.66
2019-04-11T20:37:58.554Z,46.34
2019-04-11T20:40:27.210Z,46.52
2019-04-11T20:42:57.825Z,46.20
2019-04-11T20:45:28.697Z,46.23
2019-04-11T20:48:00.284Z,46.46
2019-04-11T20:50:29.333Z,46.47
2019-04-11T20:53:00.491Z,46.63
2019-04-11T20:55:28.379Z,46.16
2019-04-11T20:57:57.046Z,46.71
2019-04-11T21:00:25.852Z,44.61
2019-04-11T21:02:58.050Z,44.08
2019-04-11T21:05:24.991Z,44.44
2019-04-11T21:07:54.026Z,44.03
2019-04-11T21:10:23.059Z,45.33
2019-04-11T21:12:51.716Z,45.69
2019-04-11T21:15:20.701Z,46.25
2019-04-11T21:17:49.376Z,46.56
2019-04-11T21:20:18.029Z,45.86
2019-04-11T21:22:46.714Z,45.58
2019-04-11T21:25:15.766Z,45.68
2019-04-11T21:27:44.767Z,46.31
2019-04-11T21:30:14.073Z,47.00
2019-04-11T21:32:42.753Z,47.54
2019-04-11T21:35:11.779Z,47.65
2019-04-11T21:37:40.801Z,47.91
2019-04-11T21:40:10.024Z,47.79
2019-04-11T21:42:39.115Z,48.13
2019-04-11T21:45:07.854Z,48.05
2019-04-11T21:47:37.872Z,48.70
2019-04-11T21:50:09.612Z,48.21
2019-04-11T21:52:43.360Z,49.13
2019-04-11T21:55:09.312Z,48.93
2019-04-11T21:57:38.043Z,49.31
2019-04-11T22:00:13.523Z,49.45
2019-04-11T22:02:42.540Z,49.66
2019-04-11T22:05:11.480Z,49.94
2019-04-11T22:07:40.180Z,50.19
2019-04-11T22:10:09.641Z,50.41
2019-04-11T22:12:40.080Z,50.88
2019-04-11T22:15:11.980Z,50.87
2019-04-11T22:17:42.946Z,51.03
2019-04-11T22:20:11.093Z,51.31
2019-04-11T22:22:40.073Z,52.08
2019-04-11T22:25:09.100Z,51.96
2019-04-11T22:27:38.144Z,51.61
2019-04-11T22:30:08.065Z,51.61
2019-04-11T22:32:36.780Z,51.80
2019-04-11T22:35:05.941Z,52.22
2019-04-11T22:37:34.667Z,52.17
2019-04-11T22:40:04.052Z,52.33
2019-04-11T22:42:32.718Z,52.91
2019-04-11T22:45:01.386Z,52.90
2019-04-11T22:47:30.080Z,53.50
2019-04-11T22:49:58.741Z,53.71
2019-04-11T22:52:28.575Z,53.89
2019-04-11T22:54:57.390Z,53.97
2019-04-11T22:57:26.326Z,54.39
2019-04-11T22:59:55.779Z,54.51
2019-04-11T23:02:36.265Z,54.66
2019-04-11T23:05:05.484Z,55.09
2019-04-11T23:07:34.486Z,55.87
2019-04-11T23:10:04.108Z,56.11
2019-04-11T23:12:33.120Z,56.33
2019-04-11T23:15:01.779Z,56.95
2019-04-11T23:17:30.448Z,57.03
2019-04-11T23:19:59.128Z,57.19
2019-04-11T23:22:27.816Z,57.37
2019-04-11T23:24:56.450Z,57.99
2019-04-11T23:27:31.192Z,57.75
2019-04-11T23:30:11.255Z,58.29
2019-04-11T23:32:41.205Z,58.19
2019-04-11T23:35:13.649Z,58.39
2019-04-11T23:37:52.159Z,58.11
2019-04-11T23:40:25.286Z,58.35
2019-04-11T23:42:59.410Z,58.00
2019-04-11T23:45:51.201Z,58.09
2019-04-11T23:48:24.070Z,58.29
2019-04-11T23:50:55.878Z,58.67
2019-04-11T23:53:30.290Z,59.33
2019-04-11T23:56:03.975Z,59.36
2019-04-11T23:58:39.110Z,59.47
